Time;durP1;ratioP1;P1;durP2;ratioP2;P2;SDS_P1;SDS_P2;PMS_P1;PMS_P2;Temp;Humidity;BMP_temperature;BMP_pressure;BME280_temperature;BME280_humidity;BME280_pressure;Samples;Min_cycle;Max_cycle;Signal;HPM_P1;HPM_P2
2023/07/15 00:01:36;;;;;;;0.00;0.00;;;;;;;21.11;100.00;100243.41;5032022;28;20029;-48
2023/07/15 00:04:03;;;;;;;0.00;0.00;;;;;;;21.10;100.00;100244.53;5032137;28;20079;-46
2023/07/15 00:06:29;;;;;;;0.00;0.00;;;;;;;21.07;100.00;100253.25;5032125;28;20040;-46
2023/07/15 00:08:55;;;;;;;0.00;0.00;;;;;;;21.07;100.00;100263.41;5032212;28;20108;-48
2023/07/15 00:11:25;;;;;;;0.00;0.00;;;;;;;21.04;100.00;100260.09;5032628;28;20505;-47
2023/07/15 00:13:51;;;;;;;0.00;0.00;;;;;;;21.03;100.00;100268.56;5031880;28;20037;-46
2023/07/15 00:16:16;;;;;;;0.00;0.00;;;;;;;20.90;100.00;100280.78;5032903;28;20112;-48
2023/07/15 00:18:42;;;;;;;0.00;0.00;;;;;;;20.80;100.00;100281.56;5031843;28;20029;-47
2023/07/15 00:21:20;;;;;;;0.00;0.00;;;;;;;20.80;100.00;100284.31;5035762;28;20487;-46
2023/07/15 00:23:46;;;;;;;0.00;0.00;;;;;;;20.82;100.00;100256.66;5035923;28;20405;-47
2023/07/15 00:26:11;;;;;;;0.00;0.00;;;;;;;20.87;100.00;100248.50;5034397;28;20033;-45
2023/07/15 00:28:37;;;;;;;0.00;0.00;;;;;;;20.93;100.00;100241.97;5034435;28;20108;-46
2023/07/15 00:31:09;;;;;;;0.00;0.00;;;;;;;20.99;100.00;100249.13;5034004;28;20067;-44
2023/07/15 00:33:34;;;;;;;0.00;0.00;;;;;;;21.06;100.00;100265.28;5032542;28;20031;-48
2023/07/15 00:35:59;;;;;;;0.00;0.00;;;;;;;21.08;100.00;100282.25;5034087;28;20033;-44
2023/07/15 00:38:25;;;;;;;0.00;0.00;;;;;;;21.07;100.00;100291.56;5034445;28;20017;-46
2023/07/15 00:40:50;;;;;;;0.00;0.00;;;;;;;21.06;100.00;100289.91;5034059;28;20033;-46
2023/07/15 00:43:54;;;;;;;0.00;0.00;;;;;;;21.03;100.00;100290.44;5033569;28;20022;-47
2023/07/15 00:46:19;;;;;;;0.00;0.00;;;;;;;20.99;100.00;100297.53;5033846;28;20021;-48
2023/07/15 00:49:02;;;;;;;0.00;0.00;;;;;;;20.91;100.00;100309.00;5032522;28;20036;-47
2023/07/15 00:51:29;;;;;;;0.00;0.00;;;;;;;20.83;100.00;100302.91;5032198;28;20057;-47
2023/07/15 00:53:55;;;;;;;0.00;0.00;;;;;;;20.77;100.00;100298.50;5032246;28;20383;-47
2023/07/15 00:56:21;;;;;;;0.00;0.00;;;;;;;20.73;100.00;100296.56;5032829;28;20049;-46
2023/07/15 00:58:49;;;;;;;0.00;0.00;;;;;;;20.69;100.00;100285.28;5032194;28;20030;-47
2023/07/15 01:01:14;;;;;;;0.00;0.00;;;;;;;20.67;100.00;100292.97;5033008;28;20029;-48
2023/07/15 01:03:44;;;;;;;0.00;0.00;;;;;;;20.62;100.00;100287.44;5034346;28;20116;-44
2023/07/15 01:06:10;;;;;;;0.00;0.00;;;;;;;20.61;100.00;100291.25;5034036;28;20052;-46
2023/07/15 01:08:35;;;;;;;0.00;0.00;;;;;;;20.58;100.00;100289.06;5032759;28;20580;-45
2023/07/15 01:11:01;;;;;;;0.00;0.00;;;;;;;20.57;100.00;100287.41;5032475;28;20036;-45
2023/07/15 01:13:26;;;;;;;0.00;0.00;;;;;;;20.54;100.00;100286.03;5032671;28;20098;-44
2023/07/15 01:15:51;;;;;;;0.00;0.00;;;;;;;20.52;100.00;100279.97;5033109;28;20029;-47
2023/07/15 01:18:17;;;;;;;0.00;0.00;;;;;;;20.48;100.00;100283.47;5034325;28;20025;-47
2023/07/15 01:20:42;;;;;;;0.00;0.00;;;;;;;20.46;100.00;100274.69;5033902;28;20445;-47
2023/07/15 01:23:07;;;;;;;0.00;0.00;;;;;;;20.45;100.00;100281.25;5033503;28;20445;-45
2023/07/15 01:25:33;;;;;;;0.00;0.00;;;;;;;20.47;100.00;100288.13;5033440;28;20034;-47
2023/07/15 01:27:58;;;;;;;0.00;0.00;;;;;;;20.43;100.00;100286.16;5032088;28;20035;-44
2023/07/15 01:30:23;;;;;;;0.00;0.00;;;;;;;20.37;100.00;100283.38;5033101;28;20346;-46
2023/07/15 01:32:49;;;;;;;0.00;0.00;;;;;;;20.37;100.00;100296.22;5035810;28;20037;-47
2023/07/15 01:35:14;;;;;;;0.00;0.00;;;;;;;20.38;100.00;100295.16;5035872;28;20032;-46
2023/07/15 01:37:40;;;;;;;0.00;0.00;;;;;;;20.44;100.00;100294.09;5036515;28;20025;-45
2023/07/15 01:40:08;;;;;;;0.00;0.00;;;;;;;20.51;100.00;100288.41;5035868;28;20127;-48
2023/07/15 01:42:34;;;;;;;0.00;0.00;;;;;;;20.54;100.00;100290.69;5035434;28;20053;-47
2023/07/15 01:44:59;;;;;;;0.00;0.00;;;;;;;20.56;100.00;100292.06;5035298;28;20060;-46
2023/07/15 01:47:24;;;;;;;0.00;0.00;;;;;;;20.54;100.00;100288.75;5035356;28;20468;-45
2023/07/15 01:49:50;;;;;;;0.00;0.00;;;;;;;20.58;100.00;100305.44;5033545;28;20033;-47
2023/07/15 01:52:15;;;;;;;0.00;0.00;;;;;;;20.58;100.00;100300.81;5034890;28;20029;-46
2023/07/15 01:54:40;;;;;;;0.00;0.00;;;;;;;20.66;100.00;100306.88;5034905;28;20123;-45
2023/07/15 01:57:06;;;;;;;0.00;0.00;;;;;;;20.67;100.00;100300.31;5035682;28;20136;-44
2023/07/15 01:59:31;;;;;;;0.00;0.00;;;;;;;20.67;100.00;100312.09;5035462;28;20498;-46
2023/07/15 02:01:59;;;;;;;0.00;0.00;;;;;;;20.66;100.00;100310.44;5034752;28;20025;-49
2023/07/15 02:04:25;;;;;;;0.00;0.00;;;;;;;20.65;100.00;100318.91;5034472;28;20306;-47
2023/07/15 02:06:50;;;;;;;0.00;0.00;;;;;;;20.65;100.00;100313.44;5034442;28;20511;-45
2023/07/15 02:09:16;;;;;;;0.00;0.00;;;;;;;20.67;100.00;100311.25;5034325;28;20064;-47
2023/07/15 02:11:42;;;;;;;0.00;0.00;;;;;;;20.64;100.00;100314.50;5034640;28;20036;-48
2023/07/15 02:14:09;;;;;;;0.00;0.00;;;;;;;20.63;100.00;100315.63;5034326;28;20091;-46
2023/07/15 02:16:34;;;;;;;0.00;0.00;;;;;;;20.64;100.00;100326.28;5034229;28;20056;-47
2023/07/15 02:19:00;;;;;;;0.00;0.00;;;;;;;20.61;100.00;100324.88;5034780;28;20057;-47
2023/07/15 02:21:25;;;;;;;0.00;0.00;;;;;;;20.58;100.00;100314.47;5035020;28;20034;-45
2023/07/15 02:23:53;;;;;;;0.00;0.00;;;;;;;20.58;100.00;100316.38;5034996;28;20020;-45
2023/07/15 02:26:19;;;;;;;0.00;0.00;;;;;;;20.58;100.00;100328.16;5034692;28;20080;-46
2023/07/15 02:28:45;;;;;;;0.00;0.00;;;;;;;20.58;100.00;100321.84;5035054;28;20021;-44
2023/07/15 02:31:10;;;;;;;0.00;0.00;;;;;;;20.56;100.00;100324.03;5034550;28;20124;-46
2023/07/15 02:33:36;;;;;;;0.00;0.00;;;;;;;20.54;100.00;100332.50;5034651;28;20052;-47
2023/07/15 02:36:03;;;;;;;0.00;0.00;;;;;;;20.49;100.00;100332.44;5034160;28;20033;-48
2023/07/15 02:38:29;;;;;;;0.00;0.00;;;;;;;20.44;100.00;100320.63;5034567;28;20108;-47
2023/07/15 02:40:55;;;;;;;0.00;0.00;;;;;;;20.45;100.00;100334.00;5033788;28;20216;-47
2023/07/15 02:43:20;;;;;;;0.00;0.00;;;;;;;20.45;100.00;100333.19;5034111;28;20088;-44
2023/07/15 02:45:56;;;;;;;0.00;0.00;;;;;;;20.45;100.00;100327.72;5035405;28;20125;-45
2023/07/15 02:48:22;;;;;;;0.00;0.00;;;;;;;20.42;100.00;100329.06;5034549;28;20029;-49
2023/07/15 02:50:54;;;;;;;0.00;0.00;;;;;;;20.33;100.00;100320.53;5033643;28;20040;-48
2023/07/15 02:53:20;;;;;;;0.00;0.00;;;;;;;20.27;100.00;100327.00;5033482;28;20056;-47
2023/07/15 02:55:45;;;;;;;0.00;0.00;;;;;;;20.27;100.00;100324.28;5033713;28;20025;-47
2023/07/15 02:58:13;;;;;;;0.00;0.00;;;;;;;20.21;100.00;100330.78;5033267;28;20565;-48
2023/07/15 03:00:38;;;;;;;0.00;0.00;;;;;;;20.21;100.00;100328.06;5033386;28;20049;-47
2023/07/15 03:03:03;;;;;;;0.00;0.00;;;;;;;20.15;100.00;100329.91;5032180;28;20113;-48
2023/07/15 03:05:29;;;;;;;0.00;0.00;;;;;;;20.15;100.00;100334.56;5033279;28;20018;-45
2023/07/15 03:07:54;;;;;;;0.00;0.00;;;;;;;20.15;100.00;100334.56;5033347;28;20401;-46
2023/07/15 03:10:20;;;;;;;0.00;0.00;;;;;;;20.15;100.00;100332.66;5033324;28;20109;-45
2023/07/15 03:12:48;;;;;;;0.00;0.00;;;;;;;20.22;100.00;100331.59;5033699;28;20040;-48
2023/07/15 03:15:14;;;;;;;0.00;0.00;;;;;;;20.18;100.00;100329.41;5033232;28;20384;-47
2023/07/15 03:17:39;;;;;;;0.00;0.00;;;;;;;20.15;100.00;100329.91;5033292;28;20025;-46
2023/07/15 03:20:19;;;;;;;0.00;0.00;;;;;;;20.17;100.00;100335.13;5033018;28;20026;-45
2023/07/15 03:22:44;;;;;;;0.00;0.00;;;;;;;20.17;100.00;100335.97;5033328;28;20442;-48
2023/07/15 03:25:10;;;;;;;0.00;0.00;;;;;;;20.15;100.00;100342.75;5032813;28;20036;-46
2023/07/15 03:27:36;;;;;;;0.00;0.00;;;;;;;20.13;100.00;100342.19;5033026;28;20033;-45
2023/07/15 03:30:02;;;;;;;0.00;0.00;;;;;;;20.12;100.00;100335.09;5032776;28;20342;-46
2023/07/15 03:32:27;;;;;;;0.00;0.00;;;;;;;20.09;100.00;100341.03;5032842;28;20449;-48
2023/07/15 03:34:53;;;;;;;0.00;0.00;;;;;;;20.07;100.00;100340.50;5033226;28;20029;-45
2023/07/15 03:37:18;;;;;;;0.00;0.00;;;;;;;20.03;100.00;100350.28;5034174;28;20030;-47
2023/07/15 03:39:43;;;;;;;0.00;0.00;;;;;;;20.03;100.00;100356.56;5034800;28;20135;-49
2023/07/15 03:42:09;;;;;;;0.00;0.00;;;;;;;19.95;100.00;100346.09;5033475;28;20495;-46
2023/07/15 03:44:35;;;;;;;0.00;0.00;;;;;;;19.94;100.00;100350.72;5033940;28;20083;-47
2023/07/15 03:47:00;;;;;;;0.00;0.00;;;;;;;19.97;100.00;100359.50;5033732;28;20022;-47
2023/07/15 03:49:25;;;;;;;0.00;0.00;;;;;;;19.98;100.00;100350.22;5032780;28;20489;-45
2023/07/15 03:51:51;;;;;;;0.00;0.00;;;;;;;19.93;100.00;100351.81;5033440;28;20056;-45
2023/07/15 03:54:16;;;;;;;0.00;0.00;;;;;;;19.85;100.00;100332.31;5032639;28;20033;-47
2023/07/15 03:56:41;;;;;;;0.00;0.00;;;;;;;19.81;100.00;100329.28;5031995;28;20128;-44
2023/07/15 03:59:07;;;;;;;0.00;0.00;;;;;;;19.78;100.00;100335.25;5032300;28;20476;-47
2023/07/15 04:01:34;;;;;;;0.00;0.00;;;;;;;19.74;100.00;100343.13;5030929;28;20044;-46
2023/07/15 04:04:04;;;;;;;0.00;0.00;;;;;;;19.71;100.00;100340.09;5032444;28;20033;-50
2023/07/15 04:06:31;;;;;;;0.00;0.00;;;;;;;19.69;100.00;100328.59;5032248;28;20036;-47
2023/07/15 04:08:57;;;;;;;0.00;0.00;;;;;;;19.65;100.00;100333.72;5032190;28;20029;-47
2023/07/15 04:11:23;;;;;;;0.00;0.00;;;;;;;19.56;100.00;100334.41;5034311;28;20498;-48
2023/07/15 04:13:48;;;;;;;0.00;0.00;;;;;;;19.50;100.00;100339.78;5033452;28;20088;-44
2023/07/15 04:16:13;;;;;;;0.00;0.00;;;;;;;19.43;100.00;100332.88;5033726;28;20029;-47
2023/07/15 04:18:39;;;;;;;0.00;0.00;;;;;;;19.41;100.00;100349.50;5031500;28;20033;-47
2023/07/15 04:21:04;;;;;;;0.00;0.00;;;;;;;19.39;100.00;100351.66;5032579;28;20022;-47
2023/07/15 04:23:30;;;;;;;0.00;0.00;;;;;;;19.38;100.00;100363.66;5032562;28;20112;-48
2023/07/15 04:25:55;;;;;;;0.00;0.00;;;;;;;19.23;100.00;100355.25;5032756;28;20075;-45
2023/07/15 04:28:20;;;;;;;0.00;0.00;;;;;;;19.22;100.00;100365.34;5031793;28;20104;-46
2023/07/15 04:30:46;;;;;;;0.00;0.00;;;;;;;19.29;100.00;100359.69;5032091;28;20060;-48
2023/07/15 04:33:11;;;;;;;0.00;0.00;;;;;;;19.14;100.00;100373.13;5032054;28;20049;-48
2023/07/15 04:35:37;;;;;;;0.00;0.00;;;;;;;19.10;100.00;100377.44;5031861;28;20033;-50
2023/07/15 04:38:02;;;;;;;0.00;0.00;;;;;;;19.08;100.00;100370.31;5031927;28;20024;-49
2023/07/15 04:40:28;;;;;;;0.00;0.00;;;;;;;19.09;100.00;100371.16;5031854;28;20029;-48
2023/07/15 04:42:53;;;;;;;0.00;0.00;;;;;;;19.09;100.00;100365.72;5031956;28;20040;-48
2023/07/15 04:45:19;;;;;;;0.00;0.00;;;;;;;19.10;100.00;100367.34;5031629;28;20561;-48
2023/07/15 04:47:44;;;;;;;0.00;0.00;;;;;;;19.07;100.00;100362.41;5031620;28;20061;-48
2023/07/15 04:50:09;;;;;;;0.00;0.00;;;;;;;19.08;100.00;100356.66;5031461;28;20021;-48
2023/07/15 04:52:35;;;;;;;0.00;0.00;;;;;;;19.10;100.00;100358.34;5031468;28;20333;-48
2023/07/15 04:55:00;;;;;;;0.00;0.00;;;;;;;19.14;100.00;100351.28;5031468;28;20029;-47
2023/07/15 04:57:26;;;;;;;0.00;0.00;;;;;;;19.18;100.00;100357.91;5030858;28;20518;-46
2023/07/15 04:59:52;;;;;;;0.00;0.00;;;;;;;19.22;100.00;100359.03;5029980;28;20095;-48
2023/07/15 05:02:17;;;;;;;0.00;0.00;;;;;;;19.26;100.00;100368.41;5031069;28;20032;-51
2023/07/15 05:04:43;;;;;;;0.00;0.00;;;;;;;19.13;100.00;100372.28;5031111;28;20290;-46
2023/07/15 05:07:08;;;;;;;0.00;0.00;;;;;;;19.12;100.00;100369.84;5031237;28;20061;-47
2023/07/15 05:09:33;;;;;;;0.00;0.00;;;;;;;19.08;100.00;100381.22;5031227;28;20029;-47
2023/07/15 05:11:59;;;;;;;0.00;0.00;;;;;;;19.00;100.00;100375.38;5031155;28;20018;-49
2023/07/15 05:14:24;;;;;;;0.00;0.00;;;;;;;18.99;100.00;100365.53;5031487;28;20059;-46
2023/07/15 05:16:50;;;;;;;0.00;0.00;;;;;;;18.89;100.00;100366.19;5031343;28;20100;-47
2023/07/15 05:19:15;;;;;;;0.00;0.00;;;;;;;18.94;100.00;100363.56;5031260;28;20025;-47
2023/07/15 05:21:41;;;;;;;0.00;0.00;;;;;;;18.98;100.00;100370.16;5029595;28;20021;-45
2023/07/15 05:24:06;;;;;;;0.00;0.00;;;;;;;18.99;100.00;100376.47;5030697;28;20100;-46
2023/07/15 05:26:32;;;;;;;0.00;0.00;;;;;;;18.97;100.00;100384.88;5030962;28;20022;-47
2023/07/15 05:28:57;;;;;;;0.00;0.00;;;;;;;18.93;100.00;100367.38;5029471;28;20383;-47
2023/07/15 05:31:22;;;;;;;0.00;0.00;;;;;;;18.85;100.00;100375.94;5031418;28;20033;-44
2023/07/15 05:33:48;;;;;;;0.00;0.00;;;;;;;18.87;100.00;100373.81;5029965;28;20460;-47
2023/07/15 05:36:14;;;;;;;0.00;0.00;;;;;;;18.82;100.00;100371.00;5031197;28;20033;-46
2023/07/15 05:38:43;;;;;;;0.00;0.00;;;;;;;18.88;100.00;100375.47;5031530;28;20026;-46
2023/07/15 05:41:10;;;;;;;0.00;0.00;;;;;;;18.90;100.00;100370.56;5034546;28;20053;-47
2023/07/15 05:43:36;;;;;;;0.00;0.00;;;;;;;18.91;100.00;100365.97;5033197;28;20022;-47
2023/07/15 05:46:01;;;;;;;0.00;0.00;;;;;;;18.94;100.00;100369.00;5031466;28;20040;-46
2023/07/15 05:48:26;;;;;;;0.00;0.00;;;;;;;18.83;100.00;100383.56;5030919;28;20026;-44
2023/07/15 05:50:52;;;;;;;0.00;0.00;;;;;;;18.89;100.00;100388.03;5031305;28;20021;-49
2023/07/15 05:53:18;;;;;;;0.00;0.00;;;;;;;18.92;100.00;100382.06;5031203;28;20036;-48
2023/07/15 05:55:43;;;;;;;0.00;0.00;;;;;;;18.98;100.00;100391.97;5030861;28;20026;-46
2023/07/15 05:58:11;;;;;;;0.00;0.00;;;;;;;18.92;100.00;100387.50;5030455;28;20112;-48
2023/07/15 06:00:40;;;;;;;0.00;0.00;;;;;;;18.94;100.00;100392.75;5031029;28;20036;-46
2023/07/15 06:03:07;;;;;;;0.00;0.00;;;;;;;18.99;100.00;100392.81;5030761;28;20034;-48
2023/07/15 06:05:32;;;;;;;0.00;0.00;;;;;;;19.11;100.00;100396.25;5030641;28;20025;-46
2023/07/15 06:07:57;;;;;;;0.00;0.00;;;;;;;19.18;100.00;100407.00;5030715;28;20479;-50
2023/07/15 06:10:23;;;;;;;0.00;0.00;;;;;;;19.20;100.00;100393.97;5030729;28;20032;-48
2023/07/15 06:12:48;;;;;;;0.00;0.00;;;;;;;19.21;100.00;100390.13;5030881;28;20036;-49
2023/07/15 06:15:14;;;;;;;0.00;0.00;;;;;;;19.25;100.00;100389.41;5030528;28;20029;-46
2023/07/15 06:17:39;;;;;;;0.00;0.00;;;;;;;19.37;100.00;100381.09;5033087;28;20538;-48
2023/07/15 06:20:06;;;;;;;0.00;0.00;;;;;;;19.29;100.00;100390.53;5034879;28;20120;-50
2023/07/15 06:22:31;;;;;;;0.00;0.00;;;;;;;19.39;100.00;100383.59;5034316;28;20040;-47
2023/07/15 06:24:57;;;;;;;0.00;0.00;;;;;;;19.37;100.00;100389.28;5034018;28;20029;-48
2023/07/15 06:27:23;;;;;;;0.00;0.00;;;;;;;19.40;100.00;100383.31;5034126;28;20013;-45
2023/07/15 06:29:49;;;;;;;0.00;0.00;;;;;;;19.27;100.00;100391.84;5034138;28;20505;-49
2023/07/15 06:32:15;;;;;;;0.00;0.00;;;;;;;19.37;100.00;100383.81;5033649;28;20310;-48
2023/07/15 06:34:40;;;;;;;0.00;0.00;;;;;;;19.47;100.00;100392.16;5033774;28;20028;-45
2023/07/15 06:37:05;;;;;;;0.00;0.00;;;;;;;19.47;100.00;100381.25;5033976;28;20029;-47
2023/07/15 06:39:31;;;;;;;0.00;0.00;;;;;;;19.57;100.00;100382.47;5033734;28;20022;-47
2023/07/15 06:41:57;;;;;;;0.00;0.00;;;;;;;19.56;100.00;100387.06;5033485;28;20063;-47
2023/07/15 06:44:24;;;;;;;0.00;0.00;;;;;;;19.56;100.00;100380.81;5032280;28;20044;-50
2023/07/15 06:46:49;;;;;;;0.00;0.00;;;;;;;19.62;100.00;100377.06;5033724;28;20029;-50
2023/07/15 06:49:14;;;;;;;0.00;0.00;;;;;;;19.63;100.00;100371.34;5033620;28;20051;-47
2023/07/15 06:51:40;;;;;;;0.00;0.00;;;;;;;19.82;100.00;100377.34;5033628;28;20505;-48
2023/07/15 06:54:05;;;;;;;0.00;0.00;;;;;;;19.87;100.00;100377.41;5033363;28;20109;-48
2023/07/15 06:56:31;;;;;;;0.00;0.00;;;;;;;19.86;100.00;100375.75;5033658;28;20119;-48
2023/07/15 06:58:56;;;;;;;0.00;0.00;;;;;;;20.01;100.00;100372.41;5033216;28;20559;-48
2023/07/15 07:01:22;;;;;;;0.00;0.00;;;;;;;20.24;100.00;100375.91;5032269;28;20069;-48
2023/07/15 07:03:47;;;;;;;0.00;0.00;;;;;;;20.32;100.00;100370.78;5033506;28;20025;-48
2023/07/15 07:06:13;;;;;;;0.00;0.00;;;;;;;20.59;100.00;100372.72;5033742;28;20027;-49
2023/07/15 07:08:38;;;;;;;0.00;0.00;;;;;;;20.87;100.00;100377.06;5035576;28;20498;-47
2023/07/15 07:11:03;;;;;;;0.00;0.00;;;;;;;20.94;100.00;100377.66;5036010;28;20432;-46
2023/07/15 07:13:29;;;;;;;0.00;0.00;;;;;;;20.69;100.00;100378.25;5034874;28;20029;-47
2023/07/15 07:15:59;;;;;;;0.00;0.00;;;;;;;20.39;100.00;100385.09;5034009;28;20036;-47
2023/07/15 07:18:25;;;;;;;0.00;0.00;;;;;;;20.35;100.00;100383.97;5033918;28;20029;-44
2023/07/15 07:20:57;;;;;;;0.00;0.00;;;;;;;20.43;100.00;100379.09;5033638;28;20033;-47
2023/07/15 07:23:23;;;;;;;0.00;0.00;;;;;;;20.32;100.00;100384.44;5032123;28;20025;-48
2023/07/15 07:25:49;;;;;;;0.00;0.00;;;;;;;20.36;100.00;100385.59;5033388;28;20479;-45
2023/07/15 07:28:14;;;;;;;0.00;0.00;;;;;;;20.43;100.00;100388.09;5032923;28;20415;-47
2023/07/15 07:30:41;;;;;;;0.00;0.00;;;;;;;20.71;100.00;100384.31;5032976;28;20017;-47
2023/07/15 07:33:06;;;;;;;0.00;0.00;;;;;;;20.93;100.00;100380.66;5033064;28;20489;-46
2023/07/15 07:35:31;;;;;;;0.00;0.00;;;;;;;21.02;100.00;100382.63;5033013;28;20061;-47
2023/07/15 07:37:57;;;;;;;0.00;0.00;;;;;;;21.31;100.00;100376.00;5033136;28;20111;-49
2023/07/15 07:40:22;;;;;;;0.00;0.00;;;;;;;21.22;100.00;100381.97;5032832;28;20032;-47
2023/07/15 07:42:47;;;;;;;0.00;0.00;;;;;;;21.14;100.00;100371.50;5033235;28;20045;-47
2023/07/15 07:45:14;;;;;;;0.00;0.00;;;;;;;21.38;100.00;100368.38;5032922;28;20040;-46
2023/07/15 07:47:39;;;;;;;0.00;0.00;;;;;;;22.14;100.00;100360.50;5032819;28;20518;-46
2023/07/15 07:50:05;;;;;;;0.00;0.00;;;;;;;22.78;100.00;100358.38;5032372;28;20108;-46
2023/07/15 07:52:31;;;;;;;0.00;0.00;;;;;;;22.57;100.00;100363.84;5032912;28;20039;-46
2023/07/15 07:54:56;;;;;;;0.00;0.00;;;;;;;22.64;100.00;100373.72;5032436;28;20037;-49
2023/07/15 07:57:22;;;;;;;0.00;0.00;;;;;;;22.39;100.00;100369.88;5032173;28;20051;-46
2023/07/15 07:59:47;;;;;;;0.00;0.00;;;;;;;22.14;100.00;100384.31;5032119;28;20448;-49
2023/07/15 08:02:13;;;;;;;0.00;0.00;;;;;;;21.88;100.00;100376.03;5032413;28;20030;-51
2023/07/15 08:04:38;;;;;;;0.00;0.00;;;;;;;21.76;100.00;100371.88;5032187;28;20037;-46
2023/07/15 08:07:03;;;;;;;0.00;0.00;;;;;;;22.10;100.00;100388.69;5031998;28;20029;-49
2023/07/15 08:09:29;;;;;;;0.00;0.00;;;;;;;22.23;100.00;100379.19;5031031;28;20039;-49
2023/07/15 08:11:54;;;;;;;0.00;0.00;;;;;;;22.44;100.00;100391.81;5032064;28;20029;-49
2023/07/15 08:14:20;;;;;;;0.00;0.00;;;;;;;21.96;100.00;100390.28;5031868;28;20029;-47
2023/07/15 08:16:45;;;;;;;0.00;0.00;;;;;;;21.66;100.00;100395.38;5031863;28;20029;-48
2023/07/15 08:19:11;;;;;;;0.00;0.00;;;;;;;21.50;100.00;100401.84;5031603;28;20528;-46
2023/07/15 08:21:37;;;;;;;0.00;0.00;;;;;;;21.53;100.00;100395.84;5030374;28;20108;-45
2023/07/15 08:24:02;;;;;;;0.00;0.00;;;;;;;21.68;100.00;100400.59;5031982;28;20396;-48
2023/07/15 08:26:28;;;;;;;0.00;0.00;;;;;;;21.94;100.00;100401.53;5031933;28;20032;-46
2023/07/15 08:28:55;;;;;;;0.00;0.00;;;;;;;22.22;100.00;100394.81;5047458;28;20040;-49
2023/07/15 08:31:20;;;;;;;0.00;0.00;;;;;;;22.02;100.00;100395.53;5032228;28;20025;-46
2023/07/15 08:33:46;;;;;;;0.00;0.00;;;;;;;22.19;100.00;100402.72;5032349;28;20085;-46
2023/07/15 08:36:11;;;;;;;0.00;0.00;;;;;;;22.06;100.00;100407.56;5032491;28;20044;-47
2023/07/15 08:38:36;;;;;;;0.00;0.00;;;;;;;22.23;100.00;100406.59;5033035;28;20468;-47
2023/07/15 08:41:02;;;;;;;0.00;0.00;;;;;;;22.30;100.00;100407.97;5031198;28;20048;-48
2023/07/15 08:43:31;;;;;;;0.00;0.00;;;;;;;22.31;100.00;100411.53;5032561;28;20037;-49
2023/07/15 08:46:00;;;;;;;0.00;0.00;;;;;;;22.55;100.00;100415.41;5031798;28;20021;-48
2023/07/15 08:48:27;;;;;;;0.00;0.00;;;;;;;22.14;100.00;100415.31;5047443;28;20033;-48
2023/07/15 08:50:55;;;;;;;0.00;0.00;;;;;;;22.15;100.00;100407.91;5031821;28;20467;-48
2023/07/15 08:53:25;;;;;;;0.00;0.00;;;;;;;22.42;100.00;100409.63;5032037;28;20080;-47
2023/07/15 08:55:53;;;;;;;0.00;0.00;;;;;;;22.47;100.00;100404.97;5030746;28;20033;-46
2023/07/15 08:58:18;;;;;;;0.00;0.00;;;;;;;22.16;100.00;100416.94;5046899;28;20068;-46
2023/07/15 09:00:44;;;;;;;0.00;0.00;;;;;;;22.40;100.00;100401.66;5031655;28;20053;-45
2023/07/15 09:03:10;;;;;;;0.00;0.00;;;;;;;23.09;100.00;100410.50;5043532;28;20082;-46
2023/07/15 09:05:35;;;;;;;0.00;0.00;;;;;;;23.99;97.22;100407.03;5050703;28;20029;-45
2023/07/15 09:08:08;;;;;;;0.00;0.00;;;;;;;24.33;95.38;100412.63;5051244;28;20566;-48
2023/07/15 09:10:34;;;;;;;0.00;0.00;;;;;;;24.53;94.20;100412.50;5051081;28;20026;-46
2023/07/15 09:12:59;;;;;;;0.00;0.00;;;;;;;24.46;94.30;100424.91;5051419;28;20083;-47
2023/07/15 09:15:25;;;;;;;0.10;0.00;;;;;;;24.46;94.08;100431.28;5051365;28;20035;-47
2023/07/15 09:17:54;;;;;;;0.00;0.00;;;;;;;24.12;94.95;100420.16;5052806;28;20421;-46
2023/07/15 09:20:21;;;;;;;0.00;0.00;;;;;;;23.71;98.96;100427.72;5052213;28;20021;-46
2023/07/15 09:22:52;;;;;;;0.00;0.00;;;;;;;23.65;100.00;100418.66;5052616;28;20029;-47
2023/07/15 09:25:20;;;;;;;0.00;0.00;;;;;;;24.01;100.00;100419.38;5051826;28;20028;-46
2023/07/15 09:27:45;;;;;;;0.00;0.00;;;;;;;24.55;97.63;100427.91;5050737;28;20179;-45
2023/07/15 09:30:11;;;;;;;0.00;0.00;;;;;;;25.58;92.77;100435.00;5050791;28;20542;-46
2023/07/15 09:32:37;;;;;;;0.00;0.00;;;;;;;25.87;90.64;100430.59;5050507;28;20028;-49
2023/07/15 09:35:03;;;;;;;0.00;0.00;;;;;;;26.43;87.67;100427.88;5050626;28;20115;-47
2023/07/15 09:37:30;;;;;;;0.00;0.00;;;;;;;27.00;86.55;100419.56;5049201;28;20056;-48
2023/07/15 09:39:56;;;;;;;;;;;;;;;26.05;86.58;100427.88;5051144;28;20025;-47
2023/07/15 09:42:22;;;;;;;0.00;0.00;;;;;;;26.39;88.65;100428.81;5050734;28;19950;-48
2023/07/15 09:44:47;;;;;;;0.00;0.00;;;;;;;25.64;89.09;100435.75;5050745;28;20190;-49
2023/07/15 09:47:12;;;;;;;0.00;0.00;;;;;;;24.98;91.02;100434.44;5050892;28;20069;-47
2023/07/15 09:49:38;;;;;;;0.00;0.00;;;;;;;24.62;93.20;100440.25;5050738;28;20044;-49
2023/07/15 09:52:06;;;;;;;0.00;0.00;;;;;;;23.88;96.96;100431.81;5052944;28;20453;-47
2023/07/15 09:54:33;;;;;;;0.00;0.00;;;;;;;24.59;96.90;100429.78;5054292;28;20060;-49
2023/07/15 09:57:13;;;;;;;0.00;0.00;;;;;;;25.38;94.03;100436.06;5054185;28;20055;-48
2023/07/15 09:59:45;;;;;;;0.00;0.00;;;;;;;26.14;90.90;100439.06;5054516;28;20072;-46
2023/07/15 10:02:39;;;;;;;0.00;0.00;;;;;;;25.11;93.75;100436.53;5055433;28;20336;-48
2023/07/15 10:05:05;;;;;;;0.00;0.00;;;;;;;24.37;95.66;100427.44;5054330;28;20124;-46
2023/07/15 10:07:31;;;;;;;0.00;0.00;;;;;;;24.22;99.87;100425.56;5055283;28;20017;-48
2023/07/15 10:09:59;;;;;;;0.00;0.00;;;;;;;23.78;99.92;100422.78;5054554;28;20309;-48
2023/07/15 10:12:26;;;;;;;0.00;0.00;;;;;;;23.47;100.00;100441.22;5053052;28;20111;-46
2023/07/15 10:14:51;;;;;;;;;;;;;;;23.38;100.00;100455.53;5054625;28;20029;-46
2023/07/15 10:17:17;;;;;;;0.00;0.00;;;;;;;23.43;100.00;100436.28;5054217;28;19916;-50
2023/07/15 10:19:46;;;;;;;0.00;0.00;;;;;;;23.42;100.00;100437.38;5054106;28;20295;-50
2023/07/15 10:22:12;;;;;;;0.00;0.00;;;;;;;23.52;100.00;100427.50;5053979;28;20493;-48
2023/07/15 10:24:52;;;;;;;0.00;0.00;;;;;;;23.51;100.00;100420.34;5054700;28;20484;-47
2023/07/15 10:27:17;;;;;;;0.00;0.00;;;;;;;23.52;100.00;100405.50;5054495;28;20413;-46
2023/07/15 10:29:43;;;;;;;0.00;0.00;;;;;;;23.81;100.00;100402.97;5054354;28;20107;-49
2023/07/15 10:32:12;;;;;;;0.00;0.00;;;;;;;23.95;100.00;100415.00;5053656;28;20048;-47
2023/07/15 10:34:47;;;;;;;0.00;0.00;;;;;;;24.78;98.68;100415.34;5053817;28;20032;-46
2023/07/15 10:37:15;;;;;;;0.00;0.00;;;;;;;24.63;97.54;100403.34;5053655;28;20094;-50
2023/07/15 10:39:42;;;;;;;0.00;0.00;;;;;;;25.13;95.93;100390.25;5053687;28;20025;-49
2023/07/15 10:42:17;;;;;;;0.00;0.00;;;;;;;24.96;97.22;100395.38;5053417;28;20100;-50
2023/07/15 10:44:52;;;;;;;0.00;0.00;;;;;;;25.31;96.93;100401.69;5053557;28;20029;-49
2023/07/15 10:47:17;;;;;;;0.00;0.00;;;;;;;25.55;95.06;100394.25;5053444;28;20029;-50
2023/07/15 10:49:43;;;;;;;0.00;0.00;;;;;;;25.91;93.35;100371.81;5052991;28;20029;-48
2023/07/15 10:52:09;;;;;;;0.00;0.00;;;;;;;26.68;89.00;100373.47;5053544;28;20033;-50
2023/07/15 10:54:36;;;;;;;0.00;0.00;;;;;;;26.82;87.63;100385.34;5053389;28;20032;-49
2023/07/15 10:57:10;;;;;;;0.00;0.00;;;;;;;27.16;85.18;100389.75;5053108;28;20041;-48
2023/07/15 10:59:37;;;;;;;0.00;0.00;;;;;;;27.04;84.83;100370.06;5052958;28;20537;-48
2023/07/15 11:02:03;;;;;;;0.00;0.00;;;;;;;27.01;85.17;100365.16;5053154;28;20028;-47
2023/07/15 11:04:28;;;;;;;0.00;0.00;;;;;;;27.30;85.91;100382.31;5052743;28;20387;-48
2023/07/15 11:07:01;;;;;;;0.00;0.00;;;;;;;27.06;85.98;100352.06;5053351;28;20466;-50
2023/07/15 11:09:27;;;;;;;0.00;0.00;;;;;;;27.50;84.79;100359.00;5052894;28;20032;-47
2023/07/15 11:11:52;;;;;;;0.00;0.00;;;;;;;27.77;83.05;100385.81;5052995;28;20029;-48
2023/07/15 11:14:28;;;;;;;0.00;0.00;;;;;;;27.79;82.90;100366.97;5053083;28;20029;-47
2023/07/15 11:16:55;;;;;;;0.00;0.00;;;;;;;27.46;83.33;100352.47;5052812;28;20029;-47